To NAV CANADA Home Page Login to a new session Search on AWWS site Feedback and Comments Disclaimer Vers la page française équivalente Tips FAQ What's new on the site To the Forecasts and Observations / NOTAM section To "File a Flight Plan" website Publications and other links Update of the User's profile FIC Telephone Numbers My Weather Data Folder Route Weather Data Regional Weather Data Local Weather Data To the Forecasts and Observations / NOTAM section
Request Generated 07/31/2015 at 23:26:34 UTC . Weather information available at that time is displayed.

METAR/TAF

CARTWRIGHT/NL    

LWIS CWCA 312300Z AUTO 17010G17KT 17/10 A2977=
LWIS CWCA 312200Z AUTO 17011G20KT 19/11 A2976=
LWIS CWCA 312100Z AUTO 16014G21KT 20/11 A2977=

TAF CYCA 311938Z 3120/0108 ADVISORY OFFSITE FCST NOT AVBL DUE NO OBS
RMK NXT FCST BY 010200Z=
Your time UTC time
Weather data provided by Environment Canada and NAV CANADA